sensor_id;sensor_type;location;lat;lon;timestamp;P1;durP1;ratioP1;P2;durP2;ratioP2
76846;SDS011;65813;49.546;8.644;2023-01-05T05:15:22;7.82;;;1.83;;
76846;SDS011;65813;49.546;8.644;2023-01-05T05:19:22;7.80;;;1.48;;
76846;SDS011;65813;49.546;8.644;2023-01-05T05:23:23;8.03;;;1.57;;
76846;SDS011;65813;49.546;8.644;2023-01-05T05:27:23;5.87;;;1.40;;
76846;SDS011;65813;49.546;8.644;2023-01-05T05:31:23;6.03;;;1.73;;
76846;SDS011;65813;49.546;8.644;2023-01-05T05:35:24;7.13;;;1.77;;
76846;SDS011;65813;49.546;8.644;2023-01-05T05:39:24;6.73;;;1.33;;
76846;SDS011;65813;49.546;8.644;2023-01-05T05:43:25;6.67;;;1.57;;
76846;SDS011;65813;49.546;8.644;2023-01-05T05:47:25;8.27;;;1.50;;
76846;SDS011;65813;49.546;8.644;2023-01-05T05:51:26;7.70;;;1.33;;
76846;SDS011;65813;49.546;8.644;2023-01-05T05:55:26;9.10;;;2.25;;
76846;SDS011;65813;49.546;8.644;2023-01-05T05:59:28;9.73;;;1.55;;
76846;SDS011;65813;49.546;8.644;2023-01-05T06:03:28;11.10;;;1.87;;
76846;SDS011;65813;49.546;8.644;2023-01-05T06:07:29;8.37;;;1.50;;
76846;SDS011;65813;49.546;8.644;2023-01-05T06:11:29;10.37;;;1.80;;
76846;SDS011;65813;49.546;8.644;2023-01-05T06:15:29;6.07;;;1.50;;
76846;SDS011;65813;49.546;8.644;2023-01-05T06:19:30;6.63;;;1.27;;
76846;SDS011;65813;49.546;8.644;2023-01-05T06:23:30;4.90;;;1.20;;
76846;SDS011;65813;49.546;8.644;2023-01-05T06:27:30;11.13;;;1.70;;
76846;SDS011;65813;49.546;8.644;2023-01-05T06:31:31;10.52;;;2.30;;
76846;SDS011;65813;49.546;8.644;2023-01-05T06:35:31;9.93;;;2.10;;
76846;SDS011;65813;49.546;8.644;2023-01-05T06:39:31;9.63;;;1.47;;
76846;SDS011;65813;49.546;8.644;2023-01-05T06:43:32;7.10;;;2.00;;
76846;SDS011;65813;49.546;8.644;2023-01-05T06:47:32;11.00;;;1.80;;
76846;SDS011;65813;49.546;8.644;2023-01-05T06:51:32;11.47;;;1.90;;
76846;SDS011;65813;49.546;8.644;2023-01-05T06:55:33;7.73;;;1.60;;
76846;SDS011;65813;49.546;8.644;2023-01-05T06:59:33;7.20;;;2.03;;
76846;SDS011;65813;49.546;8.644;2023-01-05T07:03:33;7.40;;;1.33;;
76846;SDS011;65813;49.546;8.644;2023-01-05T07:07:34;8.00;;;1.53;;
76846;SDS011;65813;49.546;8.644;2023-01-05T07:11:34;6.65;;;1.27;;
76846;SDS011;65813;49.546;8.644;2023-01-05T07:15:35;11.57;;;1.83;;
76846;SDS011;65813;49.546;8.644;2023-01-05T07:19:35;8.07;;;1.17;;
76846;SDS011;65813;49.546;8.644;2023-01-05T07:23:35;8.93;;;2.10;;
76846;SDS011;65813;49.546;8.644;2023-01-05T07:27:36;7.97;;;1.67;;
76846;SDS011;65813;49.546;8.644;2023-01-05T07:31:37;9.83;;;2.37;;
76846;SDS011;65813;49.546;8.644;2023-01-05T07:35:37;9.80;;;2.40;;
76846;SDS011;65813;49.546;8.644;2023-01-05T07:39:37;5.17;;;1.13;;
76846;SDS011;65813;49.546;8.644;2023-01-05T07:43:38;9.00;;;1.70;;
76846;SDS011;65813;49.546;8.644;2023-01-05T07:47:38;5.87;;;1.40;;
76846;SDS011;65813;49.546;8.644;2023-01-05T07:51:39;7.22;;;1.88;;
76846;SDS011;65813;49.546;8.644;2023-01-05T07:55:39;8.47;;;1.60;;
76846;SDS011;65813;49.546;8.644;2023-01-05T07:59:39;10.10;;;2.27;;
76846;SDS011;65813;49.546;8.644;2023-01-05T08:03:40;8.53;;;1.90;;
76846;SDS011;65813;49.546;8.644;2023-01-05T08:07:40;10.02;;;1.67;;
76846;SDS011;65813;49.546;8.644;2023-01-05T08:11:40;9.63;;;1.47;;
76846;SDS011;65813;49.546;8.644;2023-01-05T08:15:41;9.03;;;1.60;;
76846;SDS011;65813;49.546;8.644;2023-01-05T08:19:44;7.68;;;1.70;;
76846;SDS011;65813;49.546;8.644;2023-01-05T08:23:44;7.38;;;1.80;;
76846;SDS011;65813;49.546;8.644;2023-01-05T08:27:45;8.93;;;1.70;;
76846;SDS011;65813;49.546;8.644;2023-01-05T08:31:46;8.48;;;2.00;;
76846;SDS011;65813;49.546;8.644;2023-01-05T08:35:46;6.00;;;1.60;;
76846;SDS011;65813;49.546;8.644;2023-01-05T08:39:46;8.93;;;2.13;;
76846;SDS011;65813;49.546;8.644;2023-01-05T08:43:50;7.37;;;1.63;;
76846;SDS011;65813;49.546;8.644;2023-01-05T08:47:52;9.00;;;1.42;;
76846;SDS011;65813;49.546;8.644;2023-01-05T08:51:52;5.20;;;1.20;;
76846;SDS011;65813;49.546;8.644;2023-01-05T08:55:52;6.47;;;1.57;;
76846;SDS011;65813;49.546;8.644;2023-01-05T08:59:53;7.43;;;1.80;;
76846;SDS011;65813;49.546;8.644;2023-01-05T09:03:53;9.13;;;1.90;;
76846;SDS011;65813;49.546;8.644;2023-01-05T09:07:53;12.23;;;1.80;;
76846;SDS011;65813;49.546;8.644;2023-01-05T09:11:54;7.43;;;1.53;;
76846;SDS011;65813;49.546;8.644;2023-01-05T09:15:54;8.83;;;1.40;;
76846;SDS011;65813;49.546;8.644;2023-01-05T09:19:54;7.37;;;1.50;;
76846;SDS011;65813;49.546;8.644;2023-01-05T09:23:55;5.95;;;1.27;;
76846;SDS011;65813;49.546;8.644;2023-01-05T09:27:56;7.97;;;1.70;;
76846;SDS011;65813;49.546;8.644;2023-01-05T09:31:56;12.67;;;1.87;;
76846;SDS011;65813;49.546;8.644;2023-01-05T09:35:56;8.57;;;1.83;;
76846;SDS011;65813;49.546;8.644;2023-01-05T09:39:56;8.53;;;1.50;;
76846;SDS011;65813;49.546;8.644;2023-01-05T09:43:57;9.43;;;2.03;;
76846;SDS011;65813;49.546;8.644;2023-01-05T09:48:01;11.00;;;1.65;;
76846;SDS011;65813;49.546;8.644;2023-01-05T09:52:04;7.68;;;1.50;;
76846;SDS011;65813;49.546;8.644;2023-01-05T10:00:29;8.10;;;1.67;;
76846;SDS011;65813;49.546;8.644;2023-01-05T10:04:30;11.80;;;2.03;;
76846;SDS011;65813;49.546;8.644;2023-01-05T10:08:33;7.82;;;1.60;;
76846;SDS011;65813;49.546;8.644;2023-01-05T10:16:56;7.60;;;1.33;;
76846;SDS011;65813;49.546;8.644;2023-01-05T10:25:20;7.70;;;1.35;;
76846;SDS011;65813;49.546;8.644;2023-01-05T10:29:33;8.45;;;2.17;;
76846;SDS011;65813;49.546;8.644;2023-01-05T10:46:57;13.88;;;2.08;;
76846;SDS011;65813;49.546;8.644;2023-01-05T10:50:58;8.65;;;1.83;;
76846;SDS011;65813;49.546;8.644;2023-01-05T10:55:00;7.97;;;1.90;;
76846;SDS011;65813;49.546;8.644;2023-01-05T10:59:10;13.40;;;2.25;;
76846;SDS011;65813;49.546;8.644;2023-01-05T11:03:14;8.25;;;1.90;;
76846;SDS011;65813;49.546;8.644;2023-01-05T11:07:17;9.30;;;2.05;;
76846;SDS011;65813;49.546;8.644;2023-01-05T11:11:21;11.95;;;1.90;;
76846;SDS011;65813;49.546;8.644;2023-01-05T11:15:24;7.47;;;1.90;;
76846;SDS011;65813;49.546;8.644;2023-01-05T11:19:25;11.00;;;2.10;;
76846;SDS011;65813;49.546;8.644;2023-01-05T11:23:32;10.05;;;1.67;;
76846;SDS011;65813;49.546;8.644;2023-01-05T11:27:35;7.70;;;1.75;;
76846;SDS011;65813;49.546;8.644;2023-01-05T11:35:45;9.25;;;2.05;;
76846;SDS011;65813;49.546;8.644;2023-01-05T11:43:45;8.38;;;2.00;;
76846;SDS011;65813;49.546;8.644;2023-01-05T11:47:59;7.95;;;1.70;;
76846;SDS011;65813;49.546;8.644;2023-01-05T11:52:14;11.35;;;2.58;;
76846;SDS011;65813;49.546;8.644;2023-01-05T11:56:25;10.88;;;2.80;;
76846;SDS011;65813;49.546;8.644;2023-01-05T12:09:51;8.70;;;1.85;;
76846;SDS011;65813;49.546;8.644;2023-01-05T12:27:18;11.45;;;2.90;;
76846;SDS011;65813;49.546;8.644;2023-01-05T12:36:10;14.65;;;3.60;;
76846;SDS011;65813;49.546;8.644;2023-01-05T12:49:24;12.85;;;3.53;;
76846;SDS011;65813;49.546;8.644;2023-01-05T12:57:39;13.80;;;2.00;;
76846;SDS011;65813;49.546;8.644;2023-01-05T13:01:55;9.00;;;2.30;;
76846;SDS011;65813;49.546;8.644;2023-01-05T13:06:15;7.43;;;1.42;;
76846;SDS011;65813;49.546;8.644;2023-01-05T13:10:20;11.52;;;2.40;;
76846;SDS011;65813;49.546;8.644;2023-01-05T13:14:26;6.72;;;2.03;;
76846;SDS011;65813;49.546;8.644;2023-01-05T13:18:31;10.77;;;2.40;;
76846;SDS011;65813;49.546;8.644;2023-01-05T13:22:38;9.57;;;2.05;;
76846;SDS011;65813;49.546;8.644;2023-01-05T13:26:42;11.63;;;2.47;;
76846;SDS011;65813;49.546;8.644;2023-01-05T13:30:45;12.97;;;2.30;;
76846;SDS011;65813;49.546;8.644;2023-01-05T13:44:26;10.98;;;2.15;;
76846;SDS011;65813;49.546;8.644;2023-01-05T13:53:00;8.93;;;2.03;;
76846;SDS011;65813;49.546;8.644;2023-01-05T13:57:23;9.95;;;2.03;;
76846;SDS011;65813;49.546;8.644;2023-01-05T14:01:33;8.00;;;1.75;;
76846;SDS011;65813;49.546;8.644;2023-01-05T14:05:47;10.95;;;2.53;;
76846;SDS011;65813;49.546;8.644;2023-01-05T14:09:59;7.03;;;1.60;;
76846;SDS011;65813;49.546;8.644;2023-01-05T14:14:08;8.95;;;1.85;;
76846;SDS011;65813;49.546;8.644;2023-01-05T14:19:07;10.40;;;2.38;;
76846;SDS011;65813;49.546;8.644;2023-01-05T14:22:51;11.10;;;2.45;;
76846;SDS011;65813;49.546;8.644;2023-01-05T14:39:43;13.50;;;2.00;;
76846;SDS011;65813;49.546;8.644;2023-01-05T14:43:44;9.52;;;2.42;;
76846;SDS011;65813;49.546;8.644;2023-01-05T14:51:58;10.85;;;2.38;;
76846;SDS011;65813;49.546;8.644;2023-01-05T15:04:27;11.52;;;2.38;;
76846;SDS011;65813;49.546;8.644;2023-01-05T15:08:35;10.45;;;2.30;;
76846;SDS011;65813;49.546;8.644;2023-01-05T15:34:13;11.30;;;2.50;;
76846;SDS011;65813;49.546;8.644;2023-01-05T15:38:21;11.23;;;2.22;;
76846;SDS011;65813;49.546;8.644;2023-01-05T15:42:42;10.23;;;2.25;;
76846;SDS011;65813;49.546;8.644;2023-01-05T15:46:44;10.95;;;2.63;;
76846;SDS011;65813;49.546;8.644;2023-01-05T15:50:47;7.43;;;2.10;;
76846;SDS011;65813;49.546;8.644;2023-01-05T15:55:09;11.00;;;2.60;;
76846;SDS011;65813;49.546;8.644;2023-01-05T15:59:20;8.65;;;2.28;;
76846;SDS011;65813;49.546;8.644;2023-01-05T16:03:38;11.57;;;2.40;;
76846;SDS011;65813;49.546;8.644;2023-01-05T16:11:53;12.80;;;2.45;;
76846;SDS011;65813;49.546;8.644;2023-01-05T16:15:59;11.82;;;2.40;;
76846;SDS011;65813;49.546;8.644;2023-01-05T16:20:03;8.68;;;3.08;;
76846;SDS011;65813;49.546;8.644;2023-01-05T16:28:36;12.88;;;3.08;;
76846;SDS011;65813;49.546;8.644;2023-01-05T16:32:39;16.27;;;3.50;;
76846;SDS011;65813;49.546;8.644;2023-01-05T16:36:57;11.50;;;3.03;;
76846;SDS011;65813;49.546;8.644;2023-01-05T16:41:06;11.98;;;3.53;;
76846;SDS011;65813;49.546;8.644;2023-01-05T16:45:16;10.60;;;3.13;;
76846;SDS011;65813;49.546;8.644;2023-01-05T16:57:32;12.85;;;3.22;;
76846;SDS011;65813;49.546;8.644;2023-01-05T17:01:40;11.88;;;3.85;;
76846;SDS011;65813;49.546;8.644;2023-01-05T17:05:43;13.93;;;2.90;;
76846;SDS011;65813;49.546;8.644;2023-01-05T17:09:43;13.13;;;4.10;;
76846;SDS011;65813;49.546;8.644;2023-01-05T17:13:45;12.75;;;3.20;;
76846;SDS011;65813;49.546;8.644;2023-01-05T17:17:48;13.48;;;2.78;;
76846;SDS011;65813;49.546;8.644;2023-01-05T17:21:51;11.48;;;2.67;;
76846;SDS011;65813;49.546;8.644;2023-01-05T17:26:28;10.40;;;2.95;;
76846;SDS011;65813;49.546;8.644;2023-01-05T17:30:26;11.63;;;2.72;;
76846;SDS011;65813;49.546;8.644;2023-01-05T17:34:27;12.47;;;4.00;;
76846;SDS011;65813;49.546;8.644;2023-01-05T17:38:27;14.90;;;3.27;;
76846;SDS011;65813;49.546;8.644;2023-01-05T17:42:27;9.83;;;3.53;;
76846;SDS011;65813;49.546;8.644;2023-01-05T17:46:43;10.73;;;2.60;;
76846;SDS011;65813;49.546;8.644;2023-01-05T17:50:45;10.15;;;2.72;;
76846;SDS011;65813;49.546;8.644;2023-01-05T17:54:45;11.83;;;3.37;;
76846;SDS011;65813;49.546;8.644;2023-01-05T17:58:46;7.47;;;2.73;;
76846;SDS011;65813;49.546;8.644;2023-01-05T18:02:48;10.07;;;2.95;;
76846;SDS011;65813;49.546;8.644;2023-01-05T18:06:49;7.40;;;2.58;;
76846;SDS011;65813;49.546;8.644;2023-01-05T18:10:49;14.00;;;3.63;;
76846;SDS011;65813;49.546;8.644;2023-01-05T18:14:49;9.37;;;2.80;;
76846;SDS011;65813;49.546;8.644;2023-01-05T18:18:50;10.90;;;2.70;;
76846;SDS011;65813;49.546;8.644;2023-01-05T18:22:50;14.13;;;2.63;;
76846;SDS011;65813;49.546;8.644;2023-01-05T18:26:50;8.07;;;2.93;;
76846;SDS011;65813;49.546;8.644;2023-01-05T18:30:51;11.40;;;2.63;;
76846;SDS011;65813;49.546;8.644;2023-01-05T18:34:53;12.00;;;2.28;;
76846;SDS011;65813;49.546;8.644;2023-01-05T18:38:53;16.57;;;3.50;;
76846;SDS011;65813;49.546;8.644;2023-01-05T18:42:53;7.37;;;2.33;;
76846;SDS011;65813;49.546;8.644;2023-01-05T18:46:54;10.13;;;3.03;;
76846;SDS011;65813;49.546;8.644;2023-01-05T18:50:54;10.37;;;2.80;;
76846;SDS011;65813;49.546;8.644;2023-01-05T18:54:54;7.63;;;2.83;;
76846;SDS011;65813;49.546;8.644;2023-01-05T18:58:55;13.43;;;2.80;;
76846;SDS011;65813;49.546;8.644;2023-01-05T19:02:55;11.07;;;3.00;;
76846;SDS011;65813;49.546;8.644;2023-01-05T19:06:55;11.30;;;2.30;;
76846;SDS011;65813;49.546;8.644;2023-01-05T19:10:56;11.73;;;2.67;;
76846;SDS011;65813;49.546;8.644;2023-01-05T19:14:56;13.07;;;3.00;;
76846;SDS011;65813;49.546;8.644;2023-01-05T19:18:57;10.53;;;3.10;;
76846;SDS011;65813;49.546;8.644;2023-01-05T19:23:02;10.48;;;2.80;;
76846;SDS011;65813;49.546;8.644;2023-01-05T19:27:02;8.73;;;2.35;;
76846;SDS011;65813;49.546;8.644;2023-01-05T19:31:07;12.40;;;2.77;;
76846;SDS011;65813;49.546;8.644;2023-01-05T19:35:09;12.98;;;3.17;;
76846;SDS011;65813;49.546;8.644;2023-01-05T19:39:19;8.13;;;2.03;;
76846;SDS011;65813;49.546;8.644;2023-01-05T19:43:20;10.45;;;2.72;;
76846;SDS011;65813;49.546;8.644;2023-01-05T19:47:21;11.83;;;3.20;;
76846;SDS011;65813;49.546;8.644;2023-01-05T19:51:22;11.98;;;3.08;;
76846;SDS011;65813;49.546;8.644;2023-01-05T19:55:24;9.70;;;2.53;;
76846;SDS011;65813;49.546;8.644;2023-01-05T19:59:24;12.37;;;2.53;;
76846;SDS011;65813;49.546;8.644;2023-01-05T20:03:31;13.77;;;2.65;;
76846;SDS011;65813;49.546;8.644;2023-01-05T20:07:32;10.73;;;2.20;;
76846;SDS011;65813;49.546;8.644;2023-01-05T20:11:34;8.73;;;2.78;;
76846;SDS011;65813;49.546;8.644;2023-01-05T20:15:39;11.73;;;2.38;;
76846;SDS011;65813;49.546;8.644;2023-01-05T20:19:39;10.10;;;2.70;;
76846;SDS011;65813;49.546;8.644;2023-01-05T20:23:40;10.18;;;2.65;;
76846;SDS011;65813;49.546;8.644;2023-01-05T20:27:41;9.52;;;2.25;;
76846;SDS011;65813;49.546;8.644;2023-01-05T20:31:52;9.50;;;2.37;;
76846;SDS011;65813;49.546;8.644;2023-01-05T20:36:13;9.93;;;2.80;;
76846;SDS011;65813;49.546;8.644;2023-01-05T20:40:13;6.10;;;1.88;;
76846;SDS011;65813;49.546;8.644;2023-01-05T20:44:14;9.67;;;2.13;;
76846;SDS011;65813;49.546;8.644;2023-01-05T20:48:17;9.43;;;2.80;;
76846;SDS011;65813;49.546;8.644;2023-01-05T20:52:17;6.63;;;2.00;;
76846;SDS011;65813;49.546;8.644;2023-01-05T20:56:22;4.97;;;2.10;;
76846;SDS011;65813;49.546;8.644;2023-01-05T21:00:26;7.18;;;2.08;;
76846;SDS011;65813;49.546;8.644;2023-01-05T21:04:27;5.03;;;1.70;;
76846;SDS011;65813;49.546;8.644;2023-01-05T21:08:29;8.63;;;1.85;;
76846;SDS011;65813;49.546;8.644;2023-01-05T21:12:29;6.45;;;2.40;;
76846;SDS011;65813;49.546;8.644;2023-01-05T21:16:31;8.73;;;2.33;;
76846;SDS011;65813;49.546;8.644;2023-01-05T21:20:33;6.07;;;1.85;;
76846;SDS011;65813;49.546;8.644;2023-01-05T21:24:33;9.53;;;2.47;;
76846;SDS011;65813;49.546;8.644;2023-01-05T21:28:35;6.60;;;2.33;;
76846;SDS011;65813;49.546;8.644;2023-01-05T21:32:36;5.00;;;1.95;;
76846;SDS011;65813;49.546;8.644;2023-01-05T21:36:36;6.37;;;2.27;;
76846;SDS011;65813;49.546;8.644;2023-01-05T21:40:39;7.38;;;2.72;;
76846;SDS011;65813;49.546;8.644;2023-01-05T21:44:40;6.37;;;2.20;;
76846;SDS011;65813;49.546;8.644;2023-01-05T21:48:40;6.03;;;2.75;;
76846;SDS011;65813;49.546;8.644;2023-01-05T21:52:40;5.20;;;2.10;;
76846;SDS011;65813;49.546;8.644;2023-01-05T21:57:00;9.20;;;2.00;;
76846;SDS011;65813;49.546;8.644;2023-01-05T22:01:00;6.30;;;2.10;;
76846;SDS011;65813;49.546;8.644;2023-01-05T22:05:01;6.30;;;2.17;;
76846;SDS011;65813;49.546;8.644;2023-01-05T22:09:02;4.25;;;2.53;;
76846;SDS011;65813;49.546;8.644;2023-01-05T22:13:02;5.43;;;1.90;;
